createdAt,value
2023-03-26T00:02:23.965Z,56.90
2023-03-26T00:04:56.802Z,56.25
2023-03-26T00:07:28.673Z,56.56
2023-03-26T00:10:00.400Z,56.43
2023-03-26T00:12:32.283Z,56.12
2023-03-26T00:15:04.595Z,56.78
2023-03-26T00:17:36.934Z,56.56
2023-03-26T00:20:09.295Z,56.35
2023-03-26T00:22:41.693Z,56.48
2023-03-26T00:25:13.836Z,56.67
2023-03-26T00:27:45.712Z,55.92
2023-03-26T00:30:17.528Z,56.46
2023-03-26T00:32:54.012Z,56.03
2023-03-26T00:35:26.853Z,56.90
2023-03-26T00:38:01.898Z,56.77
2023-03-26T00:40:36.754Z,56.80
2023-03-26T00:43:18.681Z,56.23
2023-03-26T00:45:53.360Z,56.68
2023-03-26T00:48:38.280Z,57.01
2023-03-26T00:51:18.074Z,56.97
2023-03-26T00:53:52.102Z,56.46
2023-03-26T00:56:24.185Z,56.70
2023-03-26T00:58:58.631Z,56.87
2023-03-26T01:01:30.732Z,56.84
2023-03-26T01:04:27.365Z,56.29
2023-03-26T01:07:03.969Z,56.43
2023-03-26T01:09:43.021Z,56.59
2023-03-26T01:12:18.537Z,56.32
2023-03-26T01:14:53.037Z,56.39
2023-03-26T01:17:25.788Z,56.36
2023-03-26T01:20:12.374Z,56.14
2023-03-26T01:22:52.218Z,56.23
2023-03-26T01:25:28.336Z,56.18
2023-03-26T01:28:01.005Z,56.35
2023-03-26T01:30:53.763Z,56.35
2023-03-26T01:33:37.536Z,56.77
2023-03-26T01:36:38.831Z,56.42
2023-03-26T01:39:49.564Z,56.95
2023-03-26T01:42:30.169Z,56.69
2023-03-26T01:45:23.982Z,56.82
2023-03-26T01:47:56.729Z,56.81
2023-03-26T01:50:31.415Z,57.09
2023-03-26T01:53:03.977Z,57.18
2023-03-26T01:55:53.879Z,57.65
2023-03-26T01:58:39.401Z,57.53
2023-03-26T02:01:24.447Z,58.01
2023-03-26T02:04:06.766Z,58.03
2023-03-26T02:07:05.834Z,57.88
2023-03-26T02:09:45.862Z,57.62
2023-03-26T02:12:19.843Z,57.67
2023-03-26T02:14:54.948Z,57.88
2023-03-26T02:17:30.222Z,57.67
2023-03-26T02:20:05.889Z,57.73
2023-03-26T02:22:45.922Z,57.95
2023-03-26T02:25:23.124Z,58.44
2023-03-26T02:27:56.128Z,58.32
2023-03-26T02:30:29.703Z,57.94
2023-03-26T02:33:03.783Z,57.72
2023-03-26T02:35:46.446Z,58.11
2023-03-26T02:38:19.486Z,57.95
2023-03-26T02:40:51.216Z,58.04
2023-03-26T02:43:27.143Z,58.08
2023-03-26T02:45:59.116Z,57.91
2023-03-26T02:48:49.932Z,58.65
2023-03-26T02:51:29.541Z,58.61
2023-03-26T02:54:07.096Z,58.42
2023-03-26T02:57:12.176Z,58.75
2023-03-26T03:00:05.954Z,58.57
2023-03-26T03:02:40.800Z,58.90
2023-03-26T03:05:43.302Z,58.48
2023-03-26T03:08:23.064Z,58.22
2023-03-26T03:11:16.542Z,58.49
2023-03-26T03:13:51.244Z,58.89
2023-03-26T03:16:33.559Z,59.32
2023-03-26T03:19:11.841Z,59.24
2023-03-26T03:21:44.689Z,58.95
2023-03-26T03:24:18.501Z,59.54
2023-03-26T03:26:56.852Z,59.56
2023-03-26T03:29:48.917Z,59.62
2023-03-26T03:32:41.064Z,59.19
2023-03-26T03:35:13.698Z,59.44
2023-03-26T03:37:48.804Z,59.56
2023-03-26T03:40:20.589Z,59.85
2023-03-26T03:42:53.174Z,59.20
2023-03-26T03:45:42.440Z,59.71
2023-03-26T03:48:38.181Z,59.85
2023-03-26T03:51:11.536Z,60.14
2023-03-26T03:53:55.945Z,60.12
2023-03-26T03:56:47.563Z,60.42
2023-03-26T03:59:19.304Z,60.29
2023-03-26T04:01:51.177Z,60.69
2023-03-26T04:04:34.334Z,59.94
2023-03-26T04:07:08.370Z,60.42
2023-03-26T04:10:02.914Z,60.01
2023-03-26T04:12:51.861Z,59.72
2023-03-26T04:15:27.667Z,60.37
2023-03-26T04:17:59.481Z,59.87
2023-03-26T04:20:32.160Z,59.76
2023-03-26T04:23:05.991Z,59.49
2023-03-26T04:25:39.405Z,59.81
2023-03-26T04:28:32.017Z,59.93
2023-03-26T04:31:24.111Z,59.60
2023-03-26T04:34:20.168Z,59.63
2023-03-26T04:37:26.643Z,59.40
2023-03-26T04:40:16.870Z,59.29
2023-03-26T04:42:59.934Z,59.85
2023-03-26T04:45:50.126Z,59.30
2023-03-26T04:48:23.679Z,59.50
2023-03-26T04:50:55.512Z,59.64
2023-03-26T04:53:28.160Z,59.82
2023-03-26T04:56:50.055Z,59.26
2023-03-26T04:59:35.305Z,59.98
2023-03-26T05:02:11.635Z,59.48
2023-03-26T05:04:52.371Z,59.67
2023-03-26T05:07:24.898Z,59.78
2023-03-26T05:10:02.148Z,59.62
2023-03-26T05:12:53.384Z,59.56
2023-03-26T05:15:34.152Z,60.00
2023-03-26T05:18:20.557Z,60.04
2023-03-26T05:20:59.852Z,59.38
2023-03-26T05:23:37.614Z,59.41
2023-03-26T05:26:17.850Z,59.69
2023-03-26T05:28:49.909Z,60.11
2023-03-26T05:31:38.338Z,59.98
2023-03-26T05:34:10.710Z,59.91
2023-03-26T05:36:42.589Z,59.94
2023-03-26T05:39:31.732Z,59.72
2023-03-26T05:42:10.380Z,59.63
2023-03-26T05:45:10.305Z,59.38
2023-03-26T05:47:42.473Z,59.27
2023-03-26T05:50:14.614Z,59.30
2023-03-26T05:52:48.115Z,59.36
2023-03-26T05:55:41.627Z,59.48
2023-03-26T05:58:34.233Z,59.30
2023-03-26T06:01:44.788Z,59.18
2023-03-26T06:04:35.439Z,58.71
2023-03-26T06:07:28.211Z,58.38
2023-03-26T06:10:30.370Z,58.27
2023-03-26T06:13:02.114Z,57.65
2023-03-26T06:15:35.066Z,57.47
2023-03-26T06:18:16.065Z,57.61
2023-03-26T06:21:01.288Z,57.92
2023-03-26T06:23:45.554Z,57.69
2023-03-26T06:26:39.831Z,57.10
2023-03-26T06:29:34.671Z,57.36
2023-03-26T06:32:24.170Z,57.11
2023-03-26T06:34:59.308Z,56.71
2023-03-26T06:37:31.117Z,57.14
2023-03-26T06:40:06.654Z,56.50
2023-03-26T06:43:10.622Z,55.90
2023-03-26T06:46:02.000Z,55.52
2023-03-26T06:48:42.968Z,55.21
2023-03-26T06:51:46.463Z,54.80
2023-03-26T06:54:44.197Z,55.26
2023-03-26T06:57:41.492Z,55.08
2023-03-26T07:00:31.568Z,55.32
2023-03-26T07:03:22.735Z,55.51
2023-03-26T07:06:17.213Z,55.27
2023-03-26T07:09:07.581Z,55.51
2023-03-26T07:11:59.339Z,55.68
2023-03-26T07:14:32.638Z,55.54
2023-03-26T07:17:16.422Z,55.41
2023-03-26T07:19:58.250Z,55.59
2023-03-26T07:22:31.824Z,55.54
2023-03-26T07:25:10.073Z,55.69
2023-03-26T07:27:55.090Z,55.65
2023-03-26T07:31:27.314Z,56.13
2023-03-26T07:34:50.478Z,55.89
2023-03-26T07:37:44.087Z,55.86
2023-03-26T07:40:47.512Z,55.74
2023-03-26T07:43:52.806Z,55.75
2023-03-26T07:46:43.317Z,55.63
2023-03-26T07:49:27.406Z,55.32
2023-03-26T07:52:27.607Z,54.92
2023-03-26T07:55:20.099Z,55.42
2023-03-26T07:59:02.031Z,54.97
2023-03-26T08:02:05.839Z,54.72
2023-03-26T08:05:19.859Z,54.11
2023-03-26T08:08:54.090Z,53.87
2023-03-26T08:12:23.684Z,53.24
2023-03-26T08:14:58.285Z,53.07
2023-03-26T08:17:48.132Z,52.63
2023-03-26T08:20:26.217Z,52.24
2023-03-26T08:23:07.834Z,55.14
2023-03-26T08:25:51.729Z,56.33
2023-03-26T08:28:29.203Z,54.25
2023-03-26T08:31:05.426Z,55.19
2023-03-26T08:33:38.470Z,50.22
2023-03-26T08:36:10.257Z,49.14
2023-03-26T08:38:41.949Z,48.93
2023-03-26T08:41:17.107Z,48.13
2023-03-26T08:43:55.592Z,44.35
2023-03-26T08:47:12.454Z,44.32
2023-03-26T08:49:56.366Z,44.45
2023-03-26T08:52:53.116Z,43.23
2023-03-26T08:55:30.807Z,42.40
2023-03-26T08:58:39.843Z,42.41
2023-03-26T09:01:28.794Z,40.55
2023-03-26T09:04:28.871Z,39.94
2023-03-26T09:07:26.067Z,38.59
2023-03-26T09:09:57.744Z,39.03
2023-03-26T09:12:44.645Z,38.07
2023-03-26T09:15:26.289Z,37.31
2023-03-26T09:17:58.200Z,37.78
2023-03-26T09:20:56.316Z,35.87
2023-03-26T09:23:53.286Z,35.99
2023-03-26T09:26:55.918Z,35.06
2023-03-26T09:29:59.807Z,35.35
2023-03-26T09:32:49.854Z,35.35
2023-03-26T09:35:45.570Z,36.11
2023-03-26T09:38:38.880Z,36.26
2023-03-26T09:41:26.125Z,36.96
2023-03-26T09:44:32.072Z,37.38
2023-03-26T09:47:35.544Z,36.94
2023-03-26T09:50:22.199Z,35.75
2023-03-26T09:53:07.174Z,35.99
2023-03-26T09:56:28.090Z,35.87
2023-03-26T09:59:29.355Z,36.20
2023-03-26T10:02:47.104Z,36.73
2023-03-26T10:05:41.416Z,37.21
2023-03-26T10:08:32.375Z,36.76
2023-03-26T10:11:44.950Z,36.52
2023-03-26T10:14:22.240Z,35.87
2023-03-26T10:17:03.084Z,35.75
2023-03-26T10:19:34.970Z,35.38
2023-03-26T10:22:10.664Z,35.80
2023-03-26T10:25:12.948Z,36.48
2023-03-26T10:27:56.648Z,36.46
2023-03-26T10:30:36.370Z,35.98
2023-03-26T10:33:46.756Z,36.61
2023-03-26T10:36:38.644Z,37.69
2023-03-26T10:39:39.737Z,38.02
2023-03-26T10:42:43.415Z,37.74
2023-03-26T10:45:42.106Z,38.27
2023-03-26T10:48:16.620Z,38.38
2023-03-26T10:51:24.366Z,38.35
2023-03-26T10:54:08.358Z,38.95
2023-03-26T10:56:51.755Z,38.47
2023-03-26T10:59:28.911Z,37.95
2023-03-26T11:02:31.171Z,37.23
2023-03-26T11:05:22.749Z,37.29
2023-03-26T11:08:19.193Z,36.64
2023-03-26T11:11:31.812Z,36.69
2023-03-26T11:14:34.922Z,35.63
2023-03-26T11:17:39.600Z,34.82
2023-03-26T11:20:25.364Z,36.06
2023-03-26T11:23:29.545Z,34.95
2023-03-26T11:26:20.023Z,35.05
2023-03-26T11:29:31.287Z,35.01
2023-03-26T11:32:08.125Z,34.74
2023-03-26T11:35:00.961Z,34.88
2023-03-26T11:37:42.985Z,34.02
2023-03-26T11:40:21.505Z,34.96
2023-03-26T11:42:58.593Z,34.97
2023-03-26T11:45:37.346Z,35.62
2023-03-26T11:48:15.051Z,35.86
2023-03-26T11:50:53.834Z,36.84
2023-03-26T11:53:31.930Z,36.57
2023-03-26T11:56:27.107Z,36.38
2023-03-26T11:59:05.371Z,36.54
2023-03-26T12:01:50.740Z,37.49
2023-03-26T12:04:33.844Z,36.46
2023-03-26T12:07:32.197Z,36.50
2023-03-26T12:10:24.465Z,36.84
2023-03-26T12:13:36.573Z,36.57
2023-03-26T12:16:18.402Z,36.62
2023-03-26T12:19:18.541Z,37.60
2023-03-26T12:21:52.816Z,38.06
2023-03-26T12:24:27.343Z,38.07
2023-03-26T12:27:20.744Z,38.45
2023-03-26T12:30:00.115Z,38.09
2023-03-26T12:32:45.753Z,38.40
2023-03-26T12:35:26.851Z,38.92
2023-03-26T12:38:22.801Z,38.24
2023-03-26T12:44:44.334Z,37.92
2023-03-26T12:44:56.160Z,38.50
2023-03-26T12:47:59.339Z,38.71
2023-03-26T12:50:34.237Z,39.08
2023-03-26T12:53:48.301Z,39.81
2023-03-26T12:56:42.912Z,40.24
2023-03-26T12:59:39.003Z,39.20
2023-03-26T13:02:32.362Z,38.66
2023-03-26T13:05:17.703Z,38.15
2023-03-26T13:08:01.530Z,38.15
2023-03-26T13:11:04.000Z,38.59
2023-03-26T13:14:08.964Z,38.57
2023-03-26T13:16:58.439Z,39.13
2023-03-26T13:19:51.848Z,39.67
2023-03-26T13:22:29.244Z,39.36
2023-03-26T13:25:31.367Z,39.56
2023-03-26T13:28:12.042Z,38.91
2023-03-26T13:30:50.185Z,39.01
2023-03-26T13:33:22.028Z,39.50
2023-03-26T13:36:00.657Z,41.00
2023-03-26T13:38:58.906Z,43.67
2023-03-26T13:41:50.214Z,45.64
2023-03-26T13:44:42.376Z,47.79
2023-03-26T13:47:21.630Z,49.73
2023-03-26T13:50:14.344Z,50.45
2023-03-26T13:52:48.458Z,51.98
2023-03-26T13:55:35.199Z,52.82
2023-03-26T13:58:47.554Z,53.00
2023-03-26T14:01:25.265Z,55.67
2023-03-26T14:04:21.540Z,55.96
2023-03-26T14:07:16.448Z,56.92
2023-03-26T14:10:09.958Z,58.40
2023-03-26T14:13:02.669Z,59.12
2023-03-26T14:15:51.965Z,58.61
2023-03-26T14:18:32.441Z,58.03
2023-03-26T14:21:39.169Z,59.83
2023-03-26T14:25:01.550Z,61.00
2023-03-26T14:27:44.382Z,60.81
2023-03-26T14:30:37.767Z,60.40
2023-03-26T14:33:46.956Z,60.25
2023-03-26T14:36:52.947Z,62.11
2023-03-26T14:39:44.878Z,61.92
2023-03-26T14:42:34.649Z,61.50
2023-03-26T14:45:25.444Z,61.15
2023-03-26T14:48:31.601Z,61.00
2023-03-26T14:51:17.667Z,61.81
2023-03-26T14:54:01.960Z,61.95
2023-03-26T14:56:42.408Z,62.22
2023-03-26T14:59:16.917Z,62.48
2023-03-26T15:02:15.752Z,63.34
2023-03-26T15:05:10.212Z,63.25
2023-03-26T15:08:00.945Z,64.13
2023-03-26T15:11:12.905Z,64.54
2023-03-26T15:14:03.929Z,63.63
2023-03-26T15:17:09.485Z,63.23
2023-03-26T15:19:47.036Z,62.29
2023-03-26T15:22:54.218Z,63.29
2023-03-26T15:26:00.879Z,62.44
2023-03-26T15:28:54.655Z,63.20
2023-03-26T15:32:00.000Z,63.24
2023-03-26T15:35:09.775Z,63.05
2023-03-26T15:37:56.734Z,63.32
2023-03-26T15:40:47.761Z,62.85
2023-03-26T15:43:21.059Z,63.46
2023-03-26T15:46:24.713Z,63.93
2023-03-26T15:49:16.643Z,64.17
2023-03-26T15:52:20.239Z,65.46
2023-03-26T15:55:42.288Z,64.92
2023-03-26T15:58:34.522Z,64.81
2023-03-26T16:01:09.348Z,65.36
2023-03-26T16:03:50.186Z,65.61
2023-03-26T16:06:48.234Z,65.11
2023-03-26T16:09:39.200Z,64.56
2023-03-26T16:12:16.634Z,64.57
2023-03-26T16:15:19.861Z,64.35
2023-03-26T16:18:11.655Z,64.78
2023-03-26T16:21:02.122Z,64.77
2023-03-26T16:23:53.743Z,64.25
2023-03-26T16:26:31.486Z,64.82
2023-03-26T16:29:15.063Z,65.21
2023-03-26T16:32:07.863Z,65.06
2023-03-26T16:34:51.220Z,65.35
2023-03-26T16:37:32.152Z,65.61
2023-03-26T16:41:14.452Z,66.47
2023-03-26T16:43:48.889Z,66.27
2023-03-26T16:46:58.728Z,66.57
2023-03-26T16:49:30.357Z,67.06
2023-03-26T16:52:07.102Z,67.14
2023-03-26T16:54:48.653Z,67.26
2023-03-26T16:57:21.803Z,66.46
2023-03-26T17:00:29.144Z,66.48
2023-03-26T17:03:38.213Z,66.55
2023-03-26T17:06:25.279Z,66.48
2023-03-26T17:09:03.558Z,66.18
2023-03-26T17:12:14.269Z,66.83
2023-03-26T17:15:18.369Z,66.58
2023-03-26T17:18:07.268Z,66.96
2023-03-26T17:21:01.099Z,67.40
2023-03-26T17:23:54.541Z,67.32
2023-03-26T17:26:49.285Z,67.39
2023-03-26T17:29:42.858Z,67.57
2023-03-26T17:32:17.580Z,67.55
2023-03-26T17:34:55.790Z,68.26
2023-03-26T17:37:41.087Z,68.15
2023-03-26T17:41:06.803Z,68.94
2023-03-26T17:43:50.161Z,69.21
2023-03-26T17:46:57.047Z,69.52
2023-03-26T17:49:32.018Z,69.15
2023-03-26T17:52:18.657Z,69.75
2023-03-26T17:54:55.125Z,69.44
2023-03-26T17:57:41.924Z,69.83
2023-03-26T18:00:41.789Z,70.53
2023-03-26T18:03:20.053Z,70.70
2023-03-26T18:05:56.537Z,70.35
2023-03-26T18:08:42.545Z,70.54
2023-03-26T18:11:53.539Z,70.69
2023-03-26T18:14:46.195Z,70.98
2023-03-26T18:17:18.041Z,70.75
2023-03-26T18:19:55.046Z,71.14
2023-03-26T18:22:28.536Z,71.17
2023-03-26T18:25:02.465Z,71.98
2023-03-26T18:27:40.349Z,72.28
2023-03-26T18:30:17.286Z,72.04
2023-03-26T18:33:07.080Z,71.28
2023-03-26T18:35:51.861Z,71.85
2023-03-26T18:38:36.098Z,71.36
2023-03-26T18:41:23.835Z,71.76
2023-03-26T18:43:57.430Z,71.71
2023-03-26T18:46:29.430Z,72.13
2023-03-26T18:49:03.066Z,72.37
2023-03-26T18:51:43.243Z,72.27
2023-03-26T18:54:23.263Z,72.82
2023-03-26T18:56:55.118Z,72.59
2023-03-26T18:59:31.966Z,72.36
2023-03-26T19:02:09.962Z,72.43
2023-03-26T19:04:47.058Z,73.25
2023-03-26T19:07:24.851Z,73.57
2023-03-26T19:09:57.093Z,73.01
2023-03-26T19:12:33.158Z,73.30
2023-03-26T19:15:17.051Z,73.37
2023-03-26T19:17:55.846Z,73.42
2023-03-26T19:20:32.777Z,73.29
2023-03-26T19:23:06.371Z,73.17
2023-03-26T19:25:42.713Z,74.03
2023-03-26T19:28:18.777Z,74.07
2023-03-26T19:30:59.728Z,74.78
2023-03-26T19:33:39.401Z,74.32
2023-03-26T19:36:14.615Z,74.37
2023-03-26T19:38:51.018Z,74.87
2023-03-26T19:41:24.920Z,74.53
2023-03-26T19:44:01.233Z,74.91
2023-03-26T19:46:53.382Z,74.80
2023-03-26T19:49:30.041Z,74.75
2023-03-26T19:52:20.227Z,74.83
2023-03-26T19:55:06.811Z,75.19
2023-03-26T19:57:38.777Z,75.85
2023-03-26T20:00:19.037Z,75.86
2023-03-26T20:02:51.502Z,75.23
2023-03-26T20:05:26.196Z,75.43
2023-03-26T20:08:05.016Z,75.41
2023-03-26T20:10:42.938Z,75.57
2023-03-26T20:13:19.319Z,76.31
2023-03-26T20:16:06.086Z,76.47
2023-03-26T20:18:38.670Z,76.41
2023-03-26T20:21:12.538Z,75.95
2023-03-26T20:23:44.709Z,76.94
2023-03-26T20:26:18.474Z,76.86
2023-03-26T20:28:53.513Z,77.71
2023-03-26T20:31:26.770Z,77.36
2023-03-26T20:33:59.372Z,76.87
2023-03-26T20:36:34.038Z,77.41
2023-03-26T20:39:08.105Z,76.99
2023-03-26T20:41:48.451Z,76.87
2023-03-26T20:44:21.944Z,76.42
2023-03-26T20:46:57.293Z,76.53
2023-03-26T20:49:29.408Z,77.03
2023-03-26T20:52:01.315Z,76.93
2023-03-26T20:54:33.195Z,77.27
2023-03-26T20:57:05.041Z,77.36
2023-03-26T20:59:36.764Z,77.17
2023-03-26T21:02:10.408Z,77.59
2023-03-26T21:04:42.247Z,77.53
2023-03-26T21:07:18.165Z,77.99
2023-03-26T21:09:50.577Z,77.12
2023-03-26T21:12:30.368Z,77.50
2023-03-26T21:15:09.935Z,77.78
2023-03-26T21:17:47.358Z,77.29
2023-03-26T21:20:20.105Z,77.15
2023-03-26T21:23:04.559Z,78.07
2023-03-26T21:25:48.275Z,78.06
2023-03-26T21:28:46.917Z,77.33
2023-03-26T21:31:21.992Z,76.89
2023-03-26T21:33:55.223Z,77.64
2023-03-26T21:36:27.291Z,77.57
2023-03-26T21:38:59.647Z,77.50
2023-03-26T21:41:47.043Z,77.81
2023-03-26T21:44:19.623Z,76.97
2023-03-26T21:46:51.688Z,77.50
2023-03-26T21:49:23.606Z,77.21
2023-03-26T21:51:57.569Z,77.03
2023-03-26T21:54:31.976Z,77.27
2023-03-26T21:57:38.413Z,77.81
2023-03-26T22:00:16.348Z,77.08
2023-03-26T22:03:05.760Z,77.18
2023-03-26T22:05:45.239Z,76.84
2023-03-26T22:08:29.246Z,76.73
2023-03-26T22:11:01.412Z,76.69
2023-03-26T22:13:35.759Z,77.62
2023-03-26T22:16:10.731Z,77.50
2023-03-26T22:18:43.720Z,76.50
2023-03-26T22:21:15.417Z,77.57
2023-03-26T22:23:52.622Z,77.20
2023-03-26T22:26:30.840Z,77.59
2023-03-26T22:29:02.555Z,76.98
2023-03-26T22:31:34.864Z,77.51
2023-03-26T22:34:06.786Z,77.51
2023-03-26T22:36:40.281Z,77.08
2023-03-26T22:39:12.293Z,76.87
2023-03-26T22:41:44.072Z,77.28
2023-03-26T22:44:20.132Z,77.71
2023-03-26T22:46:52.397Z,77.56
2023-03-26T22:49:30.057Z,77.92
2023-03-26T22:52:02.144Z,78.38
2023-03-26T22:54:36.457Z,78.91
2023-03-26T22:57:08.396Z,78.39
2023-03-26T22:59:40.112Z,79.38
2023-03-26T23:02:13.017Z,79.76
2023-03-26T23:04:46.199Z,79.03
2023-03-26T23:07:18.161Z,79.73
2023-03-26T23:09:58.699Z,79.83
2023-03-26T23:12:30.421Z,80.01
2023-03-26T23:15:05.093Z,80.23
2023-03-26T23:17:37.617Z,80.29
2023-03-26T23:20:14.828Z,80.19
2023-03-26T23:22:46.626Z,80.64
2023-03-26T23:25:18.325Z,80.66
2023-03-26T23:27:50.580Z,80.98
2023-03-26T23:30:22.695Z,79.96
2023-03-26T23:32:57.134Z,80.05
2023-03-26T23:35:29.386Z,80.49
2023-03-26T23:38:02.251Z,80.07
2023-03-26T23:40:36.215Z,79.54
2023-03-26T23:43:07.973Z,79.89
2023-03-26T23:45:40.577Z,79.56
2023-03-26T23:48:13.604Z,79.16
2023-03-26T23:50:49.978Z,79.25
2023-03-26T23:53:24.804Z,79.38
2023-03-26T23:55:58.031Z,79.46
2023-03-26T23:58:30.654Z,79.67
